Flight Track Log - Related Links

Times and Time Zones

All times are in EDT time to prevent confusion due to time zone crossing. See the EJA573 flight status page for this flight to view local times or setup timezone preferences in your user account.

Time Position Orientation Groundspeed Altitude Reporting Facility
EDT Latitude Longitude Course Direction KTS MPH feet Rate Location/Type
Fri 04:50:11 PM 32.8333 -97.3667 360° North 134 154 1,300  Level Dallas / Fort Worth TRACON
Fri 04:50:47 PM 32.8500 -97.3667 360° North 187 215 3,500 3,625 Climbing Dallas / Fort Worth TRACON
Fri 04:51:47 PM 32.9167 -97.3500 12° North 254 292 7,100 2,368 Climbing Dallas / Fort Worth TRACON
Fri 04:52:41 PM 32.9000 -97.2833 107° East 289 333 8,000 1,463 Climbing Dallas / Fort Worth TRACON
Fri 04:54:27 PM 32.7686 -97.3172 192° South 269 310 11,000 1,735 Climbing Fort Worth Center
Fri 04:55:27 PM 32.6600 -97.2950 170° South 334 384 12,800 1,450 Climbing Fort Worth Center
Fri 04:56:27 PM 32.5889 -97.2136 136° Southeast 351 404 13,900 1,600 Climbing Fort Worth Center
Fri 04:57:27 PM 32.4969 -97.1106 137° Southeast 398 458 16,000 1,950 Climbing Fort Worth Center
Fri 04:58:27 PM 32.3986 -97.0764 164° South 402 463 17,800 1,700 Climbing Fort Worth Center
Fri 04:59:27 PM 32.2756 -97.0842 183° South 402 463 19,400 1,500 Climbing Fort Worth Center
Fri 05:00:27 PM 32.1711 -97.0967 186° South 419 482 20,800 1,300 Climbing Fort Worth Center
Fri 05:01:27 PM 32.0417 -97.1069 184° South 424 488 22,000 600 Climbing Fort Worth Center
Fri 05:02:27 PM 31.9228 -97.1269 188° South 430 495 22,000  Level Fort Worth Center
Fri 05:03:27 PM 31.8017 -97.1397 185° South 435 501 22,000  Level Fort Worth Center
Fri 05:05:21 PM 31.5897 -97.1644 186° South 425 489 22,000  Level Houston Center
Fri 05:06:23 PM 31.4694 -97.1789 186° South 428 493 22,000  Level Houston Center
Fri 05:07:25 PM 31.3497 -97.1922 185° South 427 491 22,000  Level Houston Center
Fri 05:08:27 PM 31.2314 -97.2061 186° South 423 487 22,000  Level Houston Center
Fri 05:09:29 PM 31.1006 -97.2508 196° South 414 476 22,000  Level Houston Center
Fri 05:10:31 PM 31.0119 -97.2861 199° South 406 467 22,000  Level Houston Center
Fri 05:11:33 PM 30.8892 -97.3333 198° South 422 486 22,000  Level Houston Center
Fri 05:12:35 PM 30.7811 -97.3744 198° South 409 471 22,000  Level Houston Center
Fri 05:13:37 PM 30.6542 -97.4242 199° South 410 472 22,000  Level Houston Center
Fri 05:14:39 PM 30.5417 -97.4311 183° South 420 483 22,000  Level Houston Center
Fri 05:15:42 PM 30.4339 -97.4039 168° South 395 455 22,000  Level Houston Center
Fri 05:16:44 PM 30.3292 -97.3736 166° South 386 444 22,000 -194 Level Houston Center
Fri 05:17:46 PM 30.2247 -97.3453 167° South 382 440 21,600 -1,161 Descending Houston Center
Fri 05:18:48 PM 30.1211 -97.3208 168° South 378 435 19,600 -1,887 Descending Houston Center
Fri 05:19:50 PM 30.0644 -97.4008 231° Southwest 306 352 17,700 -1,597 Descending Houston Center
Fri 05:20:52 PM 30.0339 -97.4861 248° West 290 334 16,300 -1,355 Descending Houston Center
Fri 05:21:54 PM 29.9972 -97.5858 247° West 288 331 14,900 -1,339 Descending Houston Center
Fri 05:22:44 PM 29.9733 -97.6544 248° West 284 327 13,800 -1,226 Descending Houston Center
Fri 05:23:27 PM 29.9514 -97.7103 246° West 273 314 13,000 -649 Descending Houston Center
Fri 05:23:58 PM 29.9356 -97.7544 248° West 276 318 13,000 -98 Level Houston Center
Fri 05:24:28 PM 29.9200 -97.7986 248° West 312 359 12,900  Descending Houston Center
Fri 05:25:00 PM 29.8986 -97.8569 247° West 323 372 13,000 111 Climbing Houston Center
Fri 05:25:22 PM 29.8886 -97.8869 249° West 336 387 13,000 -290 Level Houston Center
Fri 05:26:02 PM 29.8600 -97.9506 243° Southwest 324 373 12,700 -1,082 Descending Houston Center
Fri 05:26:23 PM 29.8456 -97.9864 245° Southwest 322 371 11,900 -1,816 Descending Houston Center
Fri 05:27:18 PM 29.8144 -98.0556 243° Southwest 293 337 10,400 -1,552 Descending Houston Center
Fri 05:28:19 PM 29.7783 -98.1417 244° Southwest 270 311 8,900 -1,405 Descending Houston Center
Fri 05:29:09 PM 29.7369 -98.1956 229° Southwest 291 335 7,800 -1,254 Descending Houston Center
Fri 05:29:26 PM 29.7203 -98.2164 227° Southwest 295 339 7,500 -1,065 Descending Houston Center
Fri 05:30:11 PM 29.6844 -98.2686 232° Southwest 274 315 6,700 -1,082 Descending Houston Center
Fri 05:30:27 PM 29.6742 -98.2844 233° Southwest 267 307 6,400 -677 Descending Houston Center
Fri 05:31:13 PM 29.6306 -98.3083 205° Southwest 239 275 6,000 -358 Descending Houston Center
Fri 05:31:34 PM 29.6044 -98.3028 170° South 233 268 6,000  Level Houston Center
Fri 05:32:15 PM 29.5667 -98.2719 145° Southeast 239 275 6,000  Level Houston Center
Fri 05:32:35 PM 29.5500 -98.2589 146° Southeast 242 278 6,000  Level Houston Center
Fri 05:33:17 PM 29.5058 -98.2564 177° South 247 284 6,000 -100 Level Houston Center
Fri 05:33:35 PM 29.4878 -98.2689 211° Southwest 242 278 5,900 -1,355 Descending Houston Center
Fri 05:34:19 PM 29.4483 -98.2983 213° Southwest 244 281 4,600 -1,925 Descending Houston Center
Fri 05:35:21 PM 29.4489 -98.3656 271° West 224 258 2,500 -1,500 Descending Houston Center
Fri 05:35:43 PM 29.4628 -98.3822 314° West 201 231 2,500 -290 Level Houston Center
Fri 05:36:23 PM 29.4808 -98.4053 312° West 170 196 2,200 -529 Descending Houston Center
Fri 05:37:25 PM 29.5056 -98.4372 312° West 131 151 1,600 -585 Descending Houston Center
Fri 05:37:45 PM 29.5106 -98.4461 303° West 116 133 1,400 -667 Descending Houston Center
Fri 05:38:28 PM 29.5278 -98.4653 316° Northwest 121 139 900 -698 Descending Houston Center

Login

Don't have an account? Register now (free) for customized features, flight alerts, and more!